Harbor Springs, Michigan
Current Conditions -  °F | °C
As of 7:35 PM on Thursday 27 Nov 2014 (Local Time) from KMGN Reporting Station
Overcast Overcast  
Wind Chill: -12°   Ceiling: 3600
Heat Index: -8°   Visibility: 10mi
Dew Point: -14°   Wind: 6mph
Humidity: 64%   Direction: 280°W
Pressure: 30.27"   Gusts: NA
Location:  45.43°N, 84.99°W
Report Text: KMGN 280035Z AUTO 28005KT 10SM OVC036 M07/M13 A3027 RMK AO2 T10771135
Loading
Personal Weather Stations






























Interactive Weather Map New forecast layout! Learn more

10-Day Weather Forecast

Advertisements
Track Severe Weather on mobile